sensor_id;sensor_type;location;lat;lon;timestamp;temperature;humidity
46335;DHT22;32051;48.882;9.210;2023-08-08T18:31:57;20.00;99.20
46335;DHT22;32051;48.882;9.210;2023-08-08T18:34:23;20.00;99.80
46335;DHT22;32051;48.882;9.210;2023-08-08T18:36:48;20.00;99.90
46335;DHT22;32051;48.882;9.210;2023-08-08T18:39:14;20.00;99.90
46335;DHT22;32051;48.882;9.210;2023-08-08T18:41:40;19.90;99.90
46335;DHT22;32051;48.882;9.210;2023-08-08T18:44:05;19.90;99.90
46335;DHT22;32051;48.882;9.210;2023-08-08T18:46:32;19.80;99.90
46335;DHT22;32051;48.882;9.210;2023-08-08T18:48:59;19.80;99.90
46335;DHT22;32051;48.882;9.210;2023-08-08T18:51:26;19.70;99.90
46335;DHT22;32051;48.882;9.210;2023-08-08T18:53:52;19.70;99.90
46335;DHT22;32051;48.882;9.210;2023-08-08T18:56:17;19.70;99.90
46335;DHT22;32051;48.882;9.210;2023-08-08T18:58:43;19.60;99.90
46335;DHT22;32051;48.882;9.210;2023-08-08T19:01:09;19.60;99.90
46335;DHT22;32051;48.882;9.210;2023-08-08T19:03:35;19.50;99.90
46335;DHT22;32051;48.882;9.210;2023-08-08T19:06:01;19.50;99.90
46335;DHT22;32051;48.882;9.210;2023-08-08T19:08:28;19.50;99.90
46335;DHT22;32051;48.882;9.210;2023-08-08T19:10:54;19.50;99.90
46335;DHT22;32051;48.882;9.210;2023-08-08T19:13:20;19.40;99.90
46335;DHT22;32051;48.882;9.210;2023-08-08T19:15:45;19.40;99.90
46335;DHT22;32051;48.882;9.210;2023-08-08T19:18:11;19.40;99.90
46335;DHT22;32051;48.882;9.210;2023-08-08T19:20:37;19.40;99.90
46335;DHT22;32051;48.882;9.210;2023-08-08T19:23:03;19.40;99.90
46335;DHT22;32051;48.882;9.210;2023-08-08T19:25:29;19.40;99.90
46335;DHT22;32051;48.882;9.210;2023-08-08T19:27:54;19.40;99.90
46335;DHT22;32051;48.882;9.210;2023-08-08T19:30:20;19.30;99.90
46335;DHT22;32051;48.882;9.210;2023-08-08T19:32:48;19.30;99.90
46335;DHT22;32051;48.882;9.210;2023-08-08T19:35:13;19.30;99.90
46335;DHT22;32051;48.882;9.210;2023-08-08T19:37:39;19.30;99.90
46335;DHT22;32051;48.882;9.210;2023-08-08T19:40:05;19.30;99.90
46335;DHT22;32051;48.882;9.210;2023-08-08T19:42:31;19.30;99.90
46335;DHT22;32051;48.882;9.210;2023-08-08T19:44:57;19.20;99.90
46335;DHT22;32051;48.882;9.210;2023-08-08T19:47:23;19.20;99.90
46335;DHT22;32051;48.882;9.210;2023-08-08T19:49:48;19.20;99.90
46335;DHT22;32051;48.882;9.210;2023-08-08T19:52:14;19.20;99.90
46335;DHT22;32051;48.882;9.210;2023-08-08T19:54:40;19.10;99.90
46335;DHT22;32051;48.882;9.210;2023-08-08T19:57:06;19.10;99.90
46335;DHT22;32051;48.882;9.210;2023-08-08T19:59:32;19.10;99.90
46335;DHT22;32051;48.882;9.210;2023-08-08T20:01:58;19.10;99.90
46335;DHT22;32051;48.882;9.210;2023-08-08T20:04:25;19.00;99.90
46335;DHT22;32051;48.882;9.210;2023-08-08T20:06:51;19.00;99.90
46335;DHT22;32051;48.882;9.210;2023-08-08T20:09:16;18.90;99.90
46335;DHT22;32051;48.882;9.210;2023-08-08T20:11:42;18.70;99.90
46335;DHT22;32051;48.882;9.210;2023-08-08T20:14:09;18.60;99.90
46335;DHT22;32051;48.882;9.210;2023-08-08T20:16:36;18.50;99.90
46335;DHT22;32051;48.882;9.210;2023-08-08T20:19:02;18.40;99.90
46335;DHT22;32051;48.882;9.210;2023-08-08T20:21:28;18.40;99.90
46335;DHT22;32051;48.882;9.210;2023-08-08T20:23:53;18.30;99.90
46335;DHT22;32051;48.882;9.210;2023-08-08T20:26:19;18.30;99.90
46335;DHT22;32051;48.882;9.210;2023-08-08T20:28:45;18.30;99.90
46335;DHT22;32051;48.882;9.210;2023-08-08T20:31:11;18.20;99.90
46335;DHT22;32051;48.882;9.210;2023-08-08T20:33:36;18.20;99.90
46335;DHT22;32051;48.882;9.210;2023-08-08T20:36:02;18.20;99.90
46335;DHT22;32051;48.882;9.210;2023-08-08T20:38:28;18.20;99.90
46335;DHT22;32051;48.882;9.210;2023-08-08T20:40:56;18.20;99.90
46335;DHT22;32051;48.882;9.210;2023-08-08T20:43:22;18.10;99.90
46335;DHT22;32051;48.882;9.210;2023-08-08T20:45:48;18.10;99.90
46335;DHT22;32051;48.882;9.210;2023-08-08T20:48:14;18.10;99.90
46335;DHT22;32051;48.882;9.210;2023-08-08T20:50:39;18.10;99.90
46335;DHT22;32051;48.882;9.210;2023-08-08T20:53:08;18.20;99.90
46335;DHT22;32051;48.882;9.210;2023-08-08T20:55:34;18.10;99.90
46335;DHT22;32051;48.882;9.210;2023-08-08T20:58:00;18.10;99.90
46335;DHT22;32051;48.882;9.210;2023-08-08T21:00:31;18.10;99.90
46335;DHT22;32051;48.882;9.210;2023-08-08T21:02:57;18.20;99.90
46335;DHT22;32051;48.882;9.210;2023-08-08T21:05:22;18.20;99.90
46335;DHT22;32051;48.882;9.210;2023-08-08T21:07:48;18.20;99.90
46335;DHT22;32051;48.882;9.210;2023-08-08T21:10:13;18.20;99.90
46335;DHT22;32051;48.882;9.210;2023-08-08T21:12:39;18.20;99.90
46335;DHT22;32051;48.882;9.210;2023-08-08T21:15:05;18.20;99.90
46335;DHT22;32051;48.882;9.210;2023-08-08T21:17:31;18.10;99.90
46335;DHT22;32051;48.882;9.210;2023-08-08T21:19:57;18.10;99.90
46335;DHT22;32051;48.882;9.210;2023-08-08T21:22:22;18.10;99.90
46335;DHT22;32051;48.882;9.210;2023-08-08T21:24:48;18.10;99.90
46335;DHT22;32051;48.882;9.210;2023-08-08T21:27:14;18.10;99.90
46335;DHT22;32051;48.882;9.210;2023-08-08T21:29:42;18.00;99.90
46335;DHT22;32051;48.882;9.210;2023-08-08T21:32:08;18.00;99.90
46335;DHT22;32051;48.882;9.210;2023-08-08T21:34:34;18.00;99.90
46335;DHT22;32051;48.882;9.210;2023-08-08T21:36:59;18.00;99.90
46335;DHT22;32051;48.882;9.210;2023-08-08T21:39:26;17.90;99.90
46335;DHT22;32051;48.882;9.210;2023-08-08T21:41:51;17.90;99.90
46335;DHT22;32051;48.882;9.210;2023-08-08T21:44:17;17.90;99.90
46335;DHT22;32051;48.882;9.210;2023-08-08T21:46:43;17.80;99.90
46335;DHT22;32051;48.882;9.210;2023-08-08T21:49:08;17.80;99.90
46335;DHT22;32051;48.882;9.210;2023-08-08T21:51:34;17.80;99.90
46335;DHT22;32051;48.882;9.210;2023-08-08T21:54:00;17.80;99.90
46335;DHT22;32051;48.882;9.210;2023-08-08T21:56:25;17.80;99.90
46335;DHT22;32051;48.882;9.210;2023-08-08T21:58:51;17.80;99.90
46335;DHT22;32051;48.882;9.210;2023-08-08T22:01:16;17.80;99.90
46335;DHT22;32051;48.882;9.210;2023-08-08T22:03:42;17.80;99.90
46335;DHT22;32051;48.882;9.210;2023-08-08T22:06:09;17.80;99.90
46335;DHT22;32051;48.882;9.210;2023-08-08T22:08:35;17.80;99.90
46335;DHT22;32051;48.882;9.210;2023-08-08T22:11:01;17.70;99.90
46335;DHT22;32051;48.882;9.210;2023-08-08T22:13:27;17.70;99.90
46335;DHT22;32051;48.882;9.210;2023-08-08T22:15:53;17.70;99.90
46335;DHT22;32051;48.882;9.210;2023-08-08T22:18:20;17.70;99.90
46335;DHT22;32051;48.882;9.210;2023-08-08T22:20:46;17.70;99.90
46335;DHT22;32051;48.882;9.210;2023-08-08T22:23:13;17.60;99.90
46335;DHT22;32051;48.882;9.210;2023-08-08T22:25:40;17.60;99.90
46335;DHT22;32051;48.882;9.210;2023-08-08T22:28:06;17.60;99.90
46335;DHT22;32051;48.882;9.210;2023-08-08T22:30:32;17.60;99.90
46335;DHT22;32051;48.882;9.210;2023-08-08T22:32:58;17.60;99.90
46335;DHT22;32051;48.882;9.210;2023-08-08T22:35:24;17.60;99.90
46335;DHT22;32051;48.882;9.210;2023-08-08T22:37:50;17.60;99.90
46335;DHT22;32051;48.882;9.210;2023-08-08T22:40:16;17.60;99.90
46335;DHT22;32051;48.882;9.210;2023-08-08T22:42:41;17.60;99.90
46335;DHT22;32051;48.882;9.210;2023-08-08T22:45:08;17.60;99.90
46335;DHT22;32051;48.882;9.210;2023-08-08T22:47:34;17.70;99.90
46335;DHT22;32051;48.882;9.210;2023-08-08T22:50:01;17.60;99.90
46335;DHT22;32051;48.882;9.210;2023-08-08T22:52:26;17.70;99.90
46335;DHT22;32051;48.882;9.210;2023-08-08T22:54:56;17.60;99.90
46335;DHT22;32051;48.882;9.210;2023-08-08T22:57:22;17.60;99.90
46335;DHT22;32051;48.882;9.210;2023-08-08T22:59:48;17.60;99.90
46335;DHT22;32051;48.882;9.210;2023-08-08T23:02:14;17.60;99.90
46335;DHT22;32051;48.882;9.210;2023-08-08T23:04:40;17.60;99.90
46335;DHT22;32051;48.882;9.210;2023-08-08T23:07:06;17.60;99.90
46335;DHT22;32051;48.882;9.210;2023-08-08T23:09:32;17.50;99.90
46335;DHT22;32051;48.882;9.210;2023-08-08T23:11:58;17.50;99.90
46335;DHT22;32051;48.882;9.210;2023-08-08T23:14:24;17.50;99.90
46335;DHT22;32051;48.882;9.210;2023-08-08T23:16:50;17.50;99.90
46335;DHT22;32051;48.882;9.210;2023-08-08T23:19:17;17.50;99.90
46335;DHT22;32051;48.882;9.210;2023-08-08T23:21:43;17.50;99.90
46335;DHT22;32051;48.882;9.210;2023-08-08T23:24:09;17.50;99.90
46335;DHT22;32051;48.882;9.210;2023-08-08T23:26:35;17.40;99.90
46335;DHT22;32051;48.882;9.210;2023-08-08T23:29:02;17.40;99.90
46335;DHT22;32051;48.882;9.210;2023-08-08T23:31:29;17.40;99.90
46335;DHT22;32051;48.882;9.210;2023-08-08T23:33:55;17.40;99.90
46335;DHT22;32051;48.882;9.210;2023-08-08T23:36:21;17.40;99.90
46335;DHT22;32051;48.882;9.210;2023-08-08T23:38:47;17.40;99.90
46335;DHT22;32051;48.882;9.210;2023-08-08T23:41:13;17.40;99.90
46335;DHT22;32051;48.882;9.210;2023-08-08T23:43:39;17.40;99.90
46335;DHT22;32051;48.882;9.210;2023-08-08T23:46:05;17.40;99.90
46335;DHT22;32051;48.882;9.210;2023-08-08T23:48:31;17.40;99.90
46335;DHT22;32051;48.882;9.210;2023-08-08T23:50:59;17.40;99.90
46335;DHT22;32051;48.882;9.210;2023-08-08T23:53:25;17.40;99.90
46335;DHT22;32051;48.882;9.210;2023-08-08T23:55:51;17.40;99.90
46335;DHT22;32051;48.882;9.210;2023-08-08T23:58:16;17.40;99.90
